createdAt,value
2023-01-15T00:01:49.411Z,95701.63
2023-01-15T00:04:15.910Z,95702.59
2023-01-15T00:06:42.704Z,95699.03
2023-01-15T00:09:13.210Z,95694.63
2023-01-15T00:11:39.630Z,95681.22
2023-01-15T00:14:06.087Z,95680.06
2023-01-15T00:16:32.619Z,95668.97
2023-01-15T00:19:00.557Z,95675.19
2023-01-15T00:21:27.727Z,95665.50
2023-01-15T00:24:12.656Z,95671.72
2023-01-15T00:26:58.081Z,95664.34
2023-01-15T00:29:24.981Z,95666.31
2023-01-15T00:32:00.682Z,95657.66
2023-01-15T00:34:27.571Z,95646.69
2023-01-15T00:36:54.379Z,95645.03
2023-01-15T00:39:21.086Z,95638.03
2023-01-15T00:41:47.939Z,95635.59
2023-01-15T00:44:14.392Z,95639.19
2023-01-15T00:46:40.917Z,95642.28
2023-01-15T00:49:07.656Z,95635.88
2023-01-15T00:51:34.348Z,95632.31
2023-01-15T00:54:00.939Z,95635.88
2023-01-15T00:56:27.562Z,95629.34
2023-01-15T00:58:54.013Z,95631.13
2023-01-15T01:01:20.504Z,95632.44
2023-01-15T01:03:52.966Z,95629.03
2023-01-15T01:06:20.848Z,95627.56
2023-01-15T01:08:47.926Z,95638.84
2023-01-15T01:11:16.159Z,95630.81
2023-01-15T01:13:43.041Z,95634.75
2023-01-15T01:16:24.470Z,95630.63
2023-01-15T01:18:51.096Z,95636.03
2023-01-15T01:21:17.781Z,95629.84
2023-01-15T01:23:44.220Z,95625.09
2023-01-15T01:26:10.823Z,95631.97
2023-01-15T01:28:37.279Z,95626.38
2023-01-15T01:31:07.313Z,95626.03
2023-01-15T01:33:33.790Z,95624.06
2023-01-15T01:36:00.231Z,95616.22
2023-01-15T01:38:26.974Z,95612.97
2023-01-15T01:40:53.668Z,95614.91
2023-01-15T01:43:24.432Z,95601.84
2023-01-15T01:45:50.965Z,95601.34
2023-01-15T01:48:18.808Z,95600.09
2023-01-15T01:50:46.366Z,95599.41
2023-01-15T01:53:17.569Z,95598.25
2023-01-15T01:55:44.367Z,95594.00
2023-01-15T01:58:12.193Z,95599.22
2023-01-15T02:00:39.746Z,95597.56
2023-01-15T02:03:08.619Z,95587.28
2023-01-15T02:05:49.008Z,95589.41
2023-01-15T02:08:15.558Z,95585.81
2023-01-15T02:10:42.012Z,95578.28
2023-01-15T02:13:14.147Z,95576.63
2023-01-15T02:15:43.742Z,95574.31
2023-01-15T02:18:16.371Z,95573.34
2023-01-15T02:20:48.377Z,95560.03
2023-01-15T02:23:28.743Z,95540.56
2023-01-15T02:25:58.330Z,95555.09
2023-01-15T02:28:26.965Z,95563.59
2023-01-15T02:31:04.722Z,95556.88
2023-01-15T02:33:33.941Z,95552.94
2023-01-15T02:36:06.673Z,95531.66
2023-01-15T02:38:36.099Z,95548.53
2023-01-15T02:41:04.730Z,95534.91
2023-01-15T02:43:34.915Z,95545.03
2023-01-15T02:46:02.346Z,95538.00
2023-01-15T02:48:30.573Z,95537.47
2023-01-15T02:51:17.398Z,95542.72
2023-01-15T02:53:45.747Z,95531.63
2023-01-15T02:56:14.737Z,95529.97
2023-01-15T02:58:42.709Z,95542.41
2023-01-15T03:01:11.466Z,95527.94
2023-01-15T03:03:42.091Z,95535.16
2023-01-15T03:06:12.658Z,95510.44
2023-01-15T03:08:39.194Z,95522.06
2023-01-15T03:11:10.049Z,95524.34
2023-01-15T03:13:36.448Z,95516.78
2023-01-15T03:16:33.303Z,95513.16
2023-01-15T03:18:59.755Z,95512.69
2023-01-15T03:21:45.139Z,95513.88
2023-01-15T03:24:13.972Z,95506.22
2023-01-15T03:26:40.539Z,95502.75
2023-01-15T03:29:08.457Z,95495.56
2023-01-15T03:31:35.637Z,95510.25
2023-01-15T03:34:02.362Z,95497.16
2023-01-15T03:36:28.829Z,95499.44
2023-01-15T03:38:55.323Z,95507.00
2023-01-15T03:41:27.798Z,95512.78
2023-01-15T03:44:10.693Z,95505.38
2023-01-15T03:46:40.309Z,95509.31
2023-01-15T03:49:10.426Z,95501.75
2023-01-15T03:51:48.741Z,95505.19
2023-01-15T03:54:19.938Z,95508.28
2023-01-15T03:57:05.886Z,95498.50
2023-01-15T03:59:35.765Z,95505.03
2023-01-15T04:02:03.915Z,95500.59
2023-01-15T04:04:31.089Z,95499.44
2023-01-15T04:06:58.069Z,95499.72
2023-01-15T04:09:24.789Z,95472.88
2023-01-15T04:11:51.234Z,95486.97
2023-01-15T04:14:17.959Z,95485.81
2023-01-15T04:16:44.479Z,95489.06
2023-01-15T04:19:10.913Z,95485.94
2023-01-15T04:21:37.368Z,95484.28
2023-01-15T04:24:03.963Z,95487.72
2023-01-15T04:26:30.455Z,95492.91
2023-01-15T04:28:56.886Z,95488.28
2023-01-15T04:31:23.469Z,95478.63
2023-01-15T04:33:49.940Z,95492.38
2023-01-15T04:36:16.505Z,95488.13
2023-01-15T04:38:43.000Z,95491.66
2023-01-15T04:41:28.648Z,95493.91
2023-01-15T04:44:07.155Z,95477.50
2023-01-15T04:46:35.333Z,95478.00
2023-01-15T04:49:02.067Z,95475.84
2023-01-15T04:51:28.629Z,95481.91
2023-01-15T04:53:55.062Z,95476.50
2023-01-15T04:56:21.523Z,95467.03
2023-01-15T04:58:48.126Z,95467.94
2023-01-15T05:01:16.120Z,95474.16
2023-01-15T05:03:42.882Z,95472.00
2023-01-15T05:06:09.715Z,95476.88
2023-01-15T05:08:36.335Z,95468.22
2023-01-15T05:11:03.736Z,95474.06
2023-01-15T05:13:32.303Z,95466.50
2023-01-15T05:16:18.378Z,95465.31
2023-01-15T05:18:45.538Z,95455.66
2023-01-15T05:21:20.645Z,95454.38
2023-01-15T05:23:48.091Z,95453.22
2023-01-15T05:26:14.571Z,95449.50
2023-01-15T05:28:41.024Z,95443.06
2023-01-15T05:31:11.734Z,95446.06
2023-01-15T05:33:38.769Z,95443.53
2023-01-15T05:36:06.256Z,95447.53
2023-01-15T05:38:33.034Z,95442.72
2023-01-15T05:40:59.558Z,95437.50
2023-01-15T05:43:26.098Z,95429.44
2023-01-15T05:45:52.582Z,95441.19
2023-01-15T05:48:19.044Z,95436.13
2023-01-15T05:50:45.481Z,95433.69
2023-01-15T05:53:11.965Z,95436.66
2023-01-15T05:55:38.405Z,95431.44
2023-01-15T05:58:04.914Z,95433.03
2023-01-15T06:00:31.349Z,95440.28
2023-01-15T06:02:58.180Z,95443.53
2023-01-15T06:05:24.661Z,95442.56
2023-01-15T06:07:52.945Z,95445.97
2023-01-15T06:10:19.369Z,95443.19
2023-01-15T06:12:45.817Z,95438.38
2023-01-15T06:15:12.427Z,95437.56
2023-01-15T06:17:38.850Z,95443.53
2023-01-15T06:20:05.546Z,95439.03
2023-01-15T06:22:31.959Z,95437.81
2023-01-15T06:24:58.521Z,95442.91
2023-01-15T06:27:24.954Z,95439.94
2023-01-15T06:29:51.500Z,95418.97
2023-01-15T06:32:17.922Z,95418.97
2023-01-15T06:34:44.662Z,95426.72
2023-01-15T06:37:11.228Z,95427.72
2023-01-15T06:39:37.629Z,95420.13
2023-01-15T06:42:22.379Z,95426.34
2023-01-15T06:45:07.254Z,95429.88
2023-01-15T06:47:33.859Z,95429.25
2023-01-15T06:50:00.316Z,95421.56
2023-01-15T06:52:28.068Z,95419.31
2023-01-15T06:54:54.828Z,95422.00
2023-01-15T06:57:21.385Z,95419.47
2023-01-15T06:59:48.876Z,95415.78
2023-01-15T07:02:15.739Z,95415.59
2023-01-15T07:04:42.165Z,95407.19
2023-01-15T07:07:08.787Z,95403.75
2023-01-15T07:09:35.301Z,95410.44
2023-01-15T07:12:01.713Z,95405.19
2023-01-15T07:14:28.284Z,95399.59
2023-01-15T07:16:55.654Z,95385.47
2023-01-15T07:19:22.190Z,95380.66
2023-01-15T07:21:49.060Z,95391.34
2023-01-15T07:24:16.131Z,95395.16
2023-01-15T07:26:43.190Z,95393.69
2023-01-15T07:29:09.775Z,95403.81
2023-01-15T07:31:36.262Z,95400.03
2023-01-15T07:34:02.733Z,95398.50
2023-01-15T07:36:29.228Z,95399.66
2023-01-15T07:38:55.743Z,95403.91
2023-01-15T07:41:40.746Z,95405.34
2023-01-15T07:44:28.145Z,95408.59
2023-01-15T07:47:12.996Z,95405.88
2023-01-15T07:49:47.066Z,95408.50
2023-01-15T07:52:14.876Z,95417.56
2023-01-15T07:54:41.319Z,95397.56
2023-01-15T07:57:08.089Z,95400.63
2023-01-15T07:59:34.749Z,95391.41
2023-01-15T08:02:01.353Z,95389.75
2023-01-15T08:04:27.835Z,95379.88
2023-01-15T08:06:54.363Z,95384.59
2023-01-15T08:09:21.797Z,95395.50
2023-01-15T08:12:07.249Z,95395.59
2023-01-15T08:14:52.506Z,95413.34
2023-01-15T08:17:18.977Z,95418.97
2023-01-15T08:19:45.494Z,95417.31
2023-01-15T08:22:12.041Z,95407.66
2023-01-15T08:24:38.521Z,95403.66
2023-01-15T08:27:05.124Z,95407.91
2023-01-15T08:29:31.645Z,95401.31
2023-01-15T08:31:58.079Z,95404.19
2023-01-15T08:34:24.511Z,95409.06
2023-01-15T08:36:57.187Z,95412.13
2023-01-15T08:39:23.645Z,95411.94
2023-01-15T08:41:50.155Z,95417.19
2023-01-15T08:44:17.150Z,95413.53
2023-01-15T08:46:43.887Z,95408.28
2023-01-15T08:49:10.761Z,95414.00
2023-01-15T08:51:37.247Z,95418.41
2023-01-15T08:54:03.826Z,95407.56
2023-01-15T08:56:30.332Z,95412.44
2023-01-15T08:58:56.797Z,95427.81
2023-01-15T09:01:23.388Z,95424.19
2023-01-15T09:03:49.919Z,95424.19
2023-01-15T09:06:16.421Z,95403.59
2023-01-15T09:08:42.875Z,95400.44
2023-01-15T09:11:09.855Z,95401.25
2023-01-15T09:13:36.792Z,95415.44
2023-01-15T09:16:04.316Z,95387.16
2023-01-15T09:18:31.009Z,95389.16
2023-01-15T09:20:58.058Z,95364.53
2023-01-15T09:23:24.600Z,95365.78
2023-01-15T09:25:54.648Z,95358.53
2023-01-15T09:28:21.272Z,95348.25
2023-01-15T09:30:48.100Z,95348.50
2023-01-15T09:33:14.649Z,95351.75
2023-01-15T09:35:42.260Z,95334.19
2023-01-15T09:38:12.070Z,95341.06
2023-01-15T09:40:57.457Z,95320.22
2023-01-15T09:43:50.108Z,95327.09
2023-01-15T09:46:23.159Z,95320.03
2023-01-15T09:48:49.600Z,95306.94
2023-01-15T09:51:16.011Z,95314.03
2023-01-15T09:53:55.867Z,95299.69
2023-01-15T09:56:24.453Z,95296.91
2023-01-15T09:58:52.462Z,95296.09
2023-01-15T10:01:20.785Z,95298.94
2023-01-15T10:03:52.874Z,95297.28
2023-01-15T10:06:38.077Z,95277.41
2023-01-15T10:09:11.630Z,95289.78
2023-01-15T10:12:01.897Z,95281.91
2023-01-15T10:14:51.456Z,95284.94
2023-01-15T10:17:21.139Z,95279.06
2023-01-15T10:19:47.695Z,95269.78
2023-01-15T10:22:36.943Z,95262.50
2023-01-15T10:25:07.669Z,95260.50
2023-01-15T10:27:34.316Z,95255.47
2023-01-15T10:30:03.937Z,95260.72
2023-01-15T10:33:01.509Z,95259.75
2023-01-15T10:35:29.026Z,95244.13
2023-01-15T10:38:01.671Z,95258.47
2023-01-15T10:40:31.164Z,95249.13
2023-01-15T10:42:58.701Z,95258.44
2023-01-15T10:45:30.225Z,95250.16
2023-01-15T10:48:06.040Z,95249.75
2023-01-15T10:50:32.681Z,95241.44
2023-01-15T10:53:02.492Z,95240.59
2023-01-15T10:55:46.688Z,95235.00
2023-01-15T10:58:16.048Z,95226.69
2023-01-15T11:00:46.022Z,95230.56
2023-01-15T11:03:16.608Z,95217.47
2023-01-15T11:05:45.839Z,95226.53
2023-01-15T11:09:06.540Z,95224.94
2023-01-15T11:12:01.567Z,95224.50
2023-01-15T11:15:00.841Z,95223.88
2023-01-15T11:18:15.332Z,95213.97
2023-01-15T11:20:46.165Z,95208.88
2023-01-15T11:23:14.360Z,95214.72
2023-01-15T11:25:48.883Z,95204.84
2023-01-15T11:28:15.637Z,95198.34
2023-01-15T11:30:42.420Z,95193.50
2023-01-15T11:33:25.537Z,95184.78
2023-01-15T11:35:59.873Z,95170.47
2023-01-15T11:38:30.288Z,95173.69
2023-01-15T11:41:05.409Z,95173.91
2023-01-15T11:43:50.755Z,95177.13
2023-01-15T11:46:46.012Z,95175.13
2023-01-15T11:49:34.918Z,95162.22
2023-01-15T11:52:02.419Z,95169.53
2023-01-15T11:54:30.271Z,95156.19
2023-01-15T11:56:57.586Z,95152.97
2023-01-15T11:59:25.153Z,95148.09
2023-01-15T12:01:57.658Z,95145.66
2023-01-15T12:04:24.142Z,95159.38
2023-01-15T12:06:50.936Z,95151.72
2023-01-15T12:09:17.339Z,95149.72
2023-01-15T12:11:55.757Z,95140.59
2023-01-15T12:15:00.718Z,95137.38
2023-01-15T12:17:45.357Z,95130.09
2023-01-15T12:20:38.275Z,95113.34
2023-01-15T12:23:23.325Z,95138.34
2023-01-15T12:25:49.816Z,95119.34
2023-01-15T12:28:20.754Z,95121.00
2023-01-15T12:31:13.365Z,95108.41
2023-01-15T12:33:42.847Z,95107.56
2023-01-15T12:36:20.011Z,95113.66
2023-01-15T12:38:46.571Z,95112.03
2023-01-15T12:41:21.160Z,95129.00
2023-01-15T12:44:08.779Z,95130.63
2023-01-15T12:46:38.590Z,95123.31
2023-01-15T12:49:10.518Z,95122.94
2023-01-15T12:51:54.099Z,95128.19
2023-01-15T12:54:27.830Z,95126.94
2023-01-15T12:56:57.435Z,95126.13
2023-01-15T12:59:23.917Z,95119.69
2023-01-15T13:02:10.254Z,95123.28
2023-01-15T13:04:46.479Z,95122.72
2023-01-15T13:07:23.560Z,95118.66
2023-01-15T13:09:56.260Z,95131.16
2023-01-15T13:12:22.683Z,95132.19
2023-01-15T13:14:50.747Z,95131.78
2023-01-15T13:17:24.985Z,95116.41
2023-01-15T13:19:59.794Z,95125.25
2023-01-15T13:22:27.832Z,95128.50
2023-01-15T13:25:12.813Z,95120.00
2023-01-15T13:27:57.951Z,95115.63
2023-01-15T13:30:49.406Z,95117.84
2023-01-15T13:33:38.934Z,95111.38
2023-01-15T13:36:25.963Z,95111.56
2023-01-15T13:38:54.692Z,95103.06
2023-01-15T13:41:43.722Z,95113.59
2023-01-15T13:44:20.688Z,95096.16
2023-01-15T13:46:49.255Z,95095.19
2023-01-15T13:49:22.817Z,95100.78
2023-01-15T13:51:50.002Z,95102.19
2023-01-15T13:54:18.829Z,95092.91
2023-01-15T13:56:45.823Z,95106.66
2023-01-15T13:59:30.731Z,95094.16
2023-01-15T14:01:57.317Z,95098.66
2023-01-15T14:04:36.230Z,95093.00
2023-01-15T14:07:02.899Z,95099.63
2023-01-15T14:09:31.777Z,95095.75
2023-01-15T14:12:11.312Z,95089.72
2023-01-15T14:14:46.904Z,95095.78
2023-01-15T14:17:13.306Z,95089.72
2023-01-15T14:20:00.013Z,95080.03
2023-01-15T14:22:26.435Z,95090.16
2023-01-15T14:24:52.871Z,95087.16
2023-01-15T14:27:33.321Z,95084.47
2023-01-15T14:30:08.879Z,95079.97
2023-01-15T14:32:49.394Z,95076.34
2023-01-15T14:35:24.329Z,95076.56
2023-01-15T14:37:58.450Z,95071.91
2023-01-15T14:40:28.242Z,95064.28
2023-01-15T14:43:01.801Z,95052.97
2023-01-15T14:45:46.571Z,95052.16
2023-01-15T14:48:18.827Z,95061.84
2023-01-15T14:50:46.248Z,95059.19
2023-01-15T14:53:15.608Z,95059.19
2023-01-15T14:55:54.020Z,95060.59
2023-01-15T14:58:26.537Z,95053.50
2023-01-15T15:00:55.823Z,95058.56
2023-01-15T15:03:26.201Z,95061.41
2023-01-15T15:05:52.953Z,95052.94
2023-01-15T15:08:19.884Z,95060.44
2023-01-15T15:10:51.059Z,95057.41
2023-01-15T15:13:29.548Z,95052.56
2023-01-15T15:16:12.577Z,95056.16
2023-01-15T15:18:55.134Z,95050.91
2023-01-15T15:21:24.398Z,95035.53
2023-01-15T15:24:07.402Z,95045.84
2023-01-15T15:26:37.665Z,95039.97
2023-01-15T15:29:10.227Z,95042.22
2023-01-15T15:31:42.215Z,95044.84
2023-01-15T15:34:16.015Z,95046.25
2023-01-15T15:36:45.394Z,95038.75
2023-01-15T15:39:30.760Z,95041.38
2023-01-15T15:42:17.498Z,95041.16
2023-01-15T15:45:02.317Z,95040.97
2023-01-15T15:47:47.331Z,95042.34
2023-01-15T15:50:21.705Z,95038.31
2023-01-15T15:52:49.401Z,95039.88
2023-01-15T15:55:16.984Z,95037.25
2023-01-15T15:57:44.908Z,95037.47
2023-01-15T16:00:16.954Z,95033.06
2023-01-15T16:02:44.353Z,95032.66
2023-01-15T16:05:22.852Z,95032.03
2023-01-15T16:07:49.707Z,95041.94
2023-01-15T16:10:22.660Z,95036.69
2023-01-15T16:12:52.367Z,95030.88
2023-01-15T16:15:30.214Z,95026.19
2023-01-15T16:17:57.824Z,95033.03
2023-01-15T16:20:25.171Z,95020.66
2023-01-15T16:22:59.371Z,95024.50
2023-01-15T16:25:32.909Z,95019.25
2023-01-15T16:28:00.127Z,95026.13
2023-01-15T16:30:27.661Z,95024.88
2023-01-15T16:32:56.437Z,95023.50
2023-01-15T16:35:25.134Z,95022.41
2023-01-15T16:37:53.568Z,95020.72
2023-01-15T16:40:40.571Z,95017.25
2023-01-15T16:43:18.133Z,95026.97
2023-01-15T16:46:07.776Z,95014.28
2023-01-15T16:48:38.539Z,95019.03
2023-01-15T16:51:24.246Z,95020.53
2023-01-15T16:53:50.701Z,95018.16
2023-01-15T16:56:38.688Z,95022.78
2023-01-15T16:59:14.648Z,95022.16
2023-01-15T17:01:42.992Z,95021.06
2023-01-15T17:04:24.587Z,95021.69
2023-01-15T17:07:14.371Z,95016.34
2023-01-15T17:09:45.600Z,95016.34
2023-01-15T17:12:28.203Z,95022.03
2023-01-15T17:14:54.857Z,95018.38
2023-01-15T17:17:21.292Z,95014.72
2023-01-15T17:19:48.194Z,95014.94
2023-01-15T17:22:15.770Z,95013.69
2023-01-15T17:24:49.323Z,95011.34
2023-01-15T17:27:16.032Z,95021.84
2023-01-15T17:29:42.631Z,95012.38
2023-01-15T17:32:14.393Z,95010.28
2023-01-15T17:34:40.856Z,95010.88
2023-01-15T17:37:07.495Z,95015.38
2023-01-15T17:39:34.014Z,95011.34
2023-01-15T17:42:00.493Z,95019.75
2023-01-15T17:44:26.951Z,95009.13
2023-01-15T17:46:53.386Z,95014.22
2023-01-15T17:49:19.825Z,95012.03
2023-01-15T17:51:46.409Z,95015.91
2023-01-15T17:54:32.873Z,95017.50
2023-01-15T17:57:18.054Z,95024.41
2023-01-15T18:00:03.363Z,95015.72
2023-01-15T18:02:48.554Z,95020.97
2023-01-15T18:05:27.109Z,95019.84
2023-01-15T18:07:56.653Z,95030.69
2023-01-15T18:10:23.702Z,95030.06
2023-01-15T18:12:50.201Z,95027.66
2023-01-15T18:15:20.148Z,95021.22
2023-01-15T18:17:46.777Z,95023.78
2023-01-15T18:20:13.879Z,95019.34
2023-01-15T18:22:40.375Z,95031.09
2023-01-15T18:25:07.228Z,95024.22
2023-01-15T18:27:33.741Z,95032.25
2023-01-15T18:30:00.356Z,95021.22
2023-01-15T18:32:33.371Z,95022.28
2023-01-15T18:35:00.448Z,95016.59
2023-01-15T18:37:27.052Z,95016.97
2023-01-15T18:39:53.566Z,95016.41
2023-01-15T18:42:38.519Z,95007.75
2023-01-15T18:45:23.545Z,95019.47
2023-01-15T18:47:50.063Z,95013.88
2023-01-15T18:50:16.715Z,95006.34
2023-01-15T18:52:50.111Z,95011.34
2023-01-15T18:55:17.292Z,95008.94
2023-01-15T18:57:43.775Z,95010.38
2023-01-15T19:00:11.712Z,95017.22
2023-01-15T19:02:38.339Z,95013.44
2023-01-15T19:05:05.172Z,95003.13
2023-01-15T19:07:33.071Z,95002.44
2023-01-15T19:09:59.556Z,95003.00
2023-01-15T19:12:26.092Z,95004.66
2023-01-15T19:15:11.381Z,95007.50
2023-01-15T19:17:56.543Z,95009.75
2023-01-15T19:20:23.131Z,95007.56
2023-01-15T19:22:59.001Z,95003.56
2023-01-15T19:25:29.988Z,95003.75
2023-01-15T19:27:56.654Z,95005.56
2023-01-15T19:30:23.711Z,95002.31
2023-01-15T19:32:50.388Z,94998.06
2023-01-15T19:35:17.026Z,94993.84
2023-01-15T19:37:43.672Z,94993.66
2023-01-15T19:40:23.658Z,95006.75
2023-01-15T19:43:09.435Z,95005.72
2023-01-15T19:45:56.603Z,95001.31
2023-01-15T19:48:41.780Z,95010.38
2023-01-15T19:51:08.310Z,95011.97
2023-01-15T19:53:37.213Z,95007.38
2023-01-15T19:56:04.029Z,95002.94
2023-01-15T19:58:32.228Z,95006.56
2023-01-15T20:00:58.793Z,94998.25
2023-01-15T20:03:25.354Z,94997.47
2023-01-15T20:05:52.134Z,94995.88
2023-01-15T20:08:18.795Z,95000.16
2023-01-15T20:10:47.779Z,94998.75
2023-01-15T20:13:35.050Z,95012.84
2023-01-15T20:16:09.232Z,95014.03
2023-01-15T20:18:35.760Z,95011.84
2023-01-15T20:21:02.423Z,95005.63
2023-01-15T20:23:29.195Z,95006.25
2023-01-15T20:26:00.585Z,95008.88
2023-01-15T20:28:27.412Z,95007.84
2023-01-15T20:30:56.148Z,95017.13
2023-01-15T20:33:23.091Z,95012.31
2023-01-15T20:35:52.822Z,95014.41
2023-01-15T20:38:19.936Z,95014.41
2023-01-15T20:40:47.856Z,95018.81
2023-01-15T20:43:32.860Z,95011.59
2023-01-15T20:46:12.762Z,95016.44
2023-01-15T20:48:57.745Z,95006.78
2023-01-15T20:51:24.399Z,95010.19
2023-01-15T20:53:53.224Z,95011.81
2023-01-15T20:56:19.909Z,95007.56
2023-01-15T20:58:46.502Z,95015.25
2023-01-15T21:01:13.250Z,95013.44
2023-01-15T21:03:46.441Z,95020.66
2023-01-15T21:06:12.882Z,95026.53
2023-01-15T21:08:40.867Z,95020.50
2023-01-15T21:11:07.409Z,95018.81
2023-01-15T21:13:33.951Z,95026.88
2023-01-15T21:16:02.563Z,95021.44
2023-01-15T21:18:30.451Z,95022.25
2023-01-15T21:20:57.036Z,95019.63
2023-01-15T21:23:24.101Z,95022.44
2023-01-15T21:25:50.583Z,95025.06
2023-01-15T21:28:17.227Z,95021.81
2023-01-15T21:30:44.855Z,95023.63
2023-01-15T21:33:11.700Z,95025.19
2023-01-15T21:35:39.043Z,95019.94
2023-01-15T21:38:05.533Z,95026.63
2023-01-15T21:40:31.960Z,95024.81
2023-01-15T21:43:17.080Z,95024.63
2023-01-15T21:45:43.594Z,95029.16
2023-01-15T21:48:10.067Z,95038.13
2023-01-15T21:50:37.788Z,95036.75
2023-01-15T21:53:04.306Z,95038.38
2023-01-15T21:55:30.783Z,95032.75
2023-01-15T21:57:58.189Z,95029.94
2023-01-15T22:00:24.751Z,95032.69
2023-01-15T22:02:51.344Z,95025.66
2023-01-15T22:05:17.970Z,95026.09
2023-01-15T22:07:44.405Z,95039.00
2023-01-15T22:10:11.069Z,95040.41
2023-01-15T22:12:42.039Z,95029.59
2023-01-15T22:15:09.167Z,95025.94
2023-01-15T22:17:35.802Z,95026.97
2023-01-15T22:20:02.474Z,95036.44
2023-01-15T22:22:33.741Z,95028.19
2023-01-15T22:25:00.226Z,95020.72
2023-01-15T22:27:28.036Z,95020.47
2023-01-15T22:29:54.457Z,95027.91
2023-01-15T22:32:20.884Z,95026.00
2023-01-15T22:34:47.727Z,95027.41
2023-01-15T22:37:15.040Z,95021.34
2023-01-15T22:39:41.544Z,95012.50
2023-01-15T22:42:24.942Z,95008.50
2023-01-15T22:44:51.462Z,95011.34
2023-01-15T22:47:18.631Z,95002.72
2023-01-15T22:49:45.089Z,95010.38
2023-01-15T22:52:11.649Z,94994.66
2023-01-15T22:54:38.105Z,94996.72
2023-01-15T22:57:05.245Z,95006.19
2023-01-15T22:59:31.771Z,95001.41
2023-01-15T23:01:58.273Z,94990.19
2023-01-15T23:04:25.146Z,94985.00
2023-01-15T23:06:52.207Z,94987.06
2023-01-15T23:09:19.396Z,94990.94
2023-01-15T23:11:46.369Z,94995.88
2023-01-15T23:14:13.235Z,94999.47
2023-01-15T23:16:39.668Z,94991.84
2023-01-15T23:19:06.445Z,94995.09
2023-01-15T23:21:32.898Z,95005.91
2023-01-15T23:24:00.652Z,94997.81
2023-01-15T23:26:29.119Z,94997.41
2023-01-15T23:28:55.600Z,94996.22
2023-01-15T23:31:22.420Z,94997.03
2023-01-15T23:33:49.100Z,95010.44
2023-01-15T23:36:15.730Z,94996.53
2023-01-15T23:38:43.246Z,94988.94
2023-01-15T23:41:10.809Z,94986.56
2023-01-15T23:43:56.508Z,94986.94
2023-01-15T23:46:40.275Z,94985.25
2023-01-15T23:49:08.015Z,94983.69
2023-01-15T23:51:34.804Z,94970.03
2023-01-15T23:54:01.952Z,94961.63
2023-01-15T23:56:29.252Z,94969.09
2023-01-15T23:58:56.034Z,94972.69
